Table Rock, Nebraska
Current Conditions -  °F | °C
As of 12:53 AM on Sunday 26 Oct 2014 (Local Time) from KFNB Reporting Station
Clear Clear  
Wind Chill: 57°   Ceiling: Unl
Heat Index: 57°   Visibility: 10mi
Dew Point: 46°   Wind: 8mph
Humidity: 67%   Direction: 100°E
Pressure: 29.98"   Gusts: NA
Location:  40.18°N, 96.1°W
Report Text: KFNB 260553Z AUTO 10007KT 10SM CLR 14/08 A2998 RMK AO2 SLP147 T01390078 10211 20139 402610083 58006
Loading
Personal Weather Stations






























Interactive Weather Map
Tropical Storm Tracking
New forecast layout! Learn more

10-Day Weather Forecast

Advertisements
Track Severe Weather on mobile